Neuburg — 5BQJ2 — position and weather

sailwx.info

Track history (hours):
 
Tides and Currents Weather Stations Pressure Air Temp Water Temp Dewpoint Dewpoint Depression Visibility Wind Speed Wind Dir Waves Ship Positions

Neuburg

Last reported at 2016-Dec-02 19:16 UTC. Time now 2016-Dec-03 13:44 UTC.
Position N 29°10' W 015°14'.

Length 142 m; draft 6.6 m.

Type: Cargo ship. MMSI: 212740000.

Date/timePositionNaut miles runAvg speedWind from/ knotsBaromVisibWave heightAir tempDewpointWater temp
2016-Dec-02 19:16N 29°10' W 015°14'1316.3
2016-Dec-02 18:30N 29°02' W 015°25'1616.5
2016-Dec-02 17:33N 28°52' W 015°38'1716.7
2016-Dec-02 16:33N 28°41' W 015°53'1716.8
2016-Dec-02 15:33N 28°30' W 016°07'5 1.6
2016-Dec-02 12:11N 28°29' W 016°13'0 0.0
2016-Dec-02 11:26N 28°29' W 016°13'1 0.3
2016-Dec-02 06:33N 28°28' W 016°13'1313.2
2016-Dec-02 05:33N 28°24' W 015°59'1312.6
2016-Dec-02 04:33N 28°19' W 015°45'1212.3
2016-Dec-02 03:33N 28°15' W 015°32'1010.4
2016-Dec-02 02:33N 28°08' W 015°23'1 1.5
2016-Dec-02 01:33N 28°08' W 015°25'0 0.0
2016-Dec-02 00:33N 28°08' W 015°25'0 0.0
2016-Dec-01 23:33N 28°08' W 015°25'0 0.0
2016-Dec-01 22:21N 28°08' W 015°25'0 0.0
2016-Dec-01 21:24N 28°08' W 015°25'0 0.0
2016-Dec-01 20:27N 28°08' W 015°25'0 0.0
2016-Dec-01 19:27N 28°08' W 015°25'0 0.0
2016-Dec-01 18:27N 28°08' W 015°25'0 0.0
2016-Dec-01 17:12N 28°08' W 015°25'0 0.0
2016-Dec-01 16:27N 28°08' W 015°25'0 0.0
2016-Dec-01 15:30N 28°08' W 015°25'0 0.0
2016-Dec-01 14:30N 28°08' W 015°25'0 0.0
2016-Dec-01 13:30N 28°08' W 015°25'0 0.0
2016-Dec-01 12:30N 28°08' W 015°25'0 0.0
2016-Dec-01 11:33N 28°08' W 015°25'0 0.0
2016-Dec-01 10:33N 28°08' W 015°25'3 2.9
2016-Dec-01 09:33N 28°08' W 015°22'1414.5
2016-Dec-01 08:34N 28°15' W 015°08'1414.4
2016-Dec-01 07:33N 28°23' W 014°54'1414.1
2016-Dec-01 06:33N 28°29' W 014°40'1714.2
2016-Dec-01 05:21N 28°38' W 014°22'2614.0
2016-Dec-01 03:31N 28°48' W 013°56'1413.9
2016-Dec-01 02:32N 28°52' W 013°41'10 7.5
2016-Dec-01 01:12N 28°58' W 013°32'0 0.0
2016-Nov-30 23:30N 28°58' W 013°32'0 0.0
2016-Nov-30 22:30N 28°58' W 013°32'0 0.0
2016-Nov-30 13:30N 28°58' W 013°32'0 0.0
2016-Nov-30 08:16N 28°58' W 013°32'4 4.9
2016-Nov-30 07:26N 28°55' W 013°35'6216.0
2016-Nov-30 03:33N 28°30' W 014°40'1717.0
2016-Nov-30 02:34N 28°22' W 014°56'1717.0
2016-Nov-30 01:34N 28°13' W 015°13'1212.0
2016-Nov-30 00:33N 28°08' W 015°25'0 0.1
2016-Nov-29 23:32N 28°08' W 015°25'0 0.0
2016-Nov-29 22:32N 28°08' W 015°25'0 0.0
2016-Nov-29 21:32N 28°08' W 015°25'0 0.0
2016-Nov-29 20:32N 28°08' W 015°25'0 0.0
2016-Nov-29 19:32N 28°08' W 015°25'0 0.1
2016-Nov-29 18:33N 28°08' W 015°25'5 5.3
2016-Nov-29 17:34N 28°13' W 015°27'1515.3
2016-Nov-29 16:33N 28°18' W 015°44'1515.1
2016-Nov-29 15:33N 28°23' W 015°60'1413.1
2016-Nov-29 14:30N 28°29' W 016°14'0 0.1
2016-Nov-29 13:14N 28°29' W 016°13'0 0.0
2016-Nov-29 10:26N 28°29' W 016°13'0 0.0
2016-Nov-29 09:32N 28°29' W 016°13'8 8.1
2016-Nov-29 08:33N 28°32' W 016°05'1716.9
2016-Nov-29 07:33N 28°42' W 015°50'1616.5
2016-Nov-29 06:33N 28°53' W 015°36'66215.6
2016-Nov-27 12:09N 35°58' W 005°34'914.5
2016-Nov-27 11:33N 36°00' W 005°24'23115.3
2016-Nov-26 20:26N 37°20' W 000°54'1416.0
2016-Nov-26 19:33N 37°30' W 000°41'1515.4
2016-Nov-26 18:33N 37°42' W 000°30'1716.8
2016-Nov-26 17:34N 37°59' W 000°26'133 9.4
2016-Nov-26 03:29N 39°50' E 001°07'1617.1
2016-Nov-26 02:34N 40°04' E 001°16'1717.1
2016-Nov-26 01:33N 40°19' E 001°28'1716.7
2016-Nov-26 00:33N 40°34' E 001°38'1716.9
2016-Nov-25 23:34N 40°48' E 001°51'1716.9
2016-Nov-25 22:32N 41°03' E 002°01'274 8.0
2016-Nov-24 12:21N 43°17' E 007°24'4815.4
2016-Nov-24 09:15N 43°41' E 008°21'912.7
2016-Nov-24 08:33N 43°47' E 008°30'1312.7
2016-Nov-24 07:33N 43°60' E 008°33'1414.0
2016-Nov-24 06:34N 44°12' E 008°42'1414.2
2016-Nov-24 05:33N 44°21' E 008°57'4 4.4
2016-Nov-24 04:32N 44°24' E 008°53'0 0.0
2016-Nov-24 03:32N 44°24' E 008°53'0 0.0
2016-Nov-24 02:32N 44°24' E 008°53'0 0.0
2016-Nov-24 01:32N 44°24' E 008°53'0 0.0
2016-Nov-24 00:32N 44°24' E 008°53'0 0.0
2016-Nov-23 23:32N 44°24' E 008°53'0 0.0
2016-Nov-23 22:32N 44°24' E 008°53'0 0.0
2016-Nov-23 21:32N 44°24' E 008°53'0 0.0
2016-Nov-23 20:32N 44°24' E 008°53'2 2.3
2016-Nov-23 19:33N 44°24' E 008°56'1211.9
2016-Nov-23 18:33N 44°12' E 008°53'1616.0
2016-Nov-23 17:33N 43°58' E 008°42'1515.3
2016-Nov-23 16:33N 43°46' E 008°29'23814.4
2016-Nov-23 00:05N 41°42' E 003°53'915.3
2016-Nov-22 23:30N 41°39' E 003°41'1415.1
2016-Nov-22 22:33N 41°34' E 003°23'3216.1
2016-Nov-22 20:33N 41°24' E 002°43'1716.7
2016-Nov-22 19:33N 41°19' E 002°22'  
Track history (hours):
 
Tides and Currents Weather Stations Pressure Air Temp Water Temp Dewpoint Dewpoint Depression Visibility Wind Speed Wind Dir Waves Ship Positions

Neuburg

Last reported at 2016-Dec-02 19:16 UTC. Time now 2016-Dec-03 13:44 UTC.
Position N 29°10' W 015°14'.

Length 142 m; draft 6.6 m.

Type: Cargo ship. MMSI: 212740000.

Date/timePositionNaut miles runAvg speedWind from/ knotsBaromVisibWave heightAir tempDewpointWater temp
2016-Dec-02 19:16N 29°10' W 015°14'1316.3
2016-Dec-02 18:30N 29°02' W 015°25'1616.5
2016-Dec-02 17:33N 28°52' W 015°38'1716.7
2016-Dec-02 16:33N 28°41' W 015°53'1716.8
2016-Dec-02 15:33N 28°30' W 016°07'5 1.6
2016-Dec-02 12:11N 28°29' W 016°13'0 0.0
2016-Dec-02 11:26N 28°29' W 016°13'1 0.3
2016-Dec-02 06:33N 28°28' W 016°13'1313.2
2016-Dec-02 05:33N 28°24' W 015°59'1312.6
2016-Dec-02 04:33N 28°19' W 015°45'1212.3
2016-Dec-02 03:33N 28°15' W 015°32'1010.4
2016-Dec-02 02:33N 28°08' W 015°23'1 1.5
2016-Dec-02 01:33N 28°08' W 015°25'0 0.0
2016-Dec-02 00:33N 28°08' W 015°25'0 0.0
2016-Dec-01 23:33N 28°08' W 015°25'0 0.0
2016-Dec-01 22:21N 28°08' W 015°25'0 0.0
2016-Dec-01 21:24N 28°08' W 015°25'0 0.0
2016-Dec-01 20:27N 28°08' W 015°25'0 0.0
2016-Dec-01 19:27N 28°08' W 015°25'0 0.0
2016-Dec-01 18:27N 28°08' W 015°25'0 0.0
2016-Dec-01 17:12N 28°08' W 015°25'0 0.0
2016-Dec-01 16:27N 28°08' W 015°25'0 0.0
2016-Dec-01 15:30N 28°08' W 015°25'0 0.0
2016-Dec-01 14:30N 28°08' W 015°25'0 0.0
2016-Dec-01 13:30N 28°08' W 015°25'0 0.0
2016-Dec-01 12:30N 28°08' W 015°25'0 0.0
2016-Dec-01 11:33N 28°08' W 015°25'0 0.0
2016-Dec-01 10:33N 28°08' W 015°25'3 2.9
2016-Dec-01 09:33N 28°08' W 015°22'1414.5
2016-Dec-01 08:34N 28°15' W 015°08'1414.4
2016-Dec-01 07:33N 28°23' W 014°54'1414.1
2016-Dec-01 06:33N 28°29' W 014°40'1714.2
2016-Dec-01 05:21N 28°38' W 014°22'2614.0
2016-Dec-01 03:31N 28°48' W 013°56'1413.9
2016-Dec-01 02:32N 28°52' W 013°41'10 7.5
2016-Dec-01 01:12N 28°58' W 013°32'0 0.0
2016-Nov-30 23:30N 28°58' W 013°32'0 0.0
2016-Nov-30 22:30N 28°58' W 013°32'0 0.0
2016-Nov-30 13:30N 28°58' W 013°32'0 0.0
2016-Nov-30 08:16N 28°58' W 013°32'4 4.9
2016-Nov-30 07:26N 28°55' W 013°35'6216.0
2016-Nov-30 03:33N 28°30' W 014°40'1717.0
2016-Nov-30 02:34N 28°22' W 014°56'1717.0
2016-Nov-30 01:34N 28°13' W 015°13'1212.0
2016-Nov-30 00:33N 28°08' W 015°25'0 0.1
2016-Nov-29 23:32N 28°08' W 015°25'0 0.0
2016-Nov-29 22:32N 28°08' W 015°25'0 0.0
2016-Nov-29 21:32N 28°08' W 015°25'0 0.0
2016-Nov-29 20:32N 28°08' W 015°25'0 0.0
2016-Nov-29 19:32N 28°08' W 015°25'0 0.1
2016-Nov-29 18:33N 28°08' W 015°25'5 5.3
2016-Nov-29 17:34N 28°13' W 015°27'1515.3
2016-Nov-29 16:33N 28°18' W 015°44'1515.1
2016-Nov-29 15:33N 28°23' W 015°60'1413.1
2016-Nov-29 14:30N 28°29' W 016°14'0 0.1
2016-Nov-29 13:14N 28°29' W 016°13'0 0.0
2016-Nov-29 10:26N 28°29' W 016°13'0 0.0
2016-Nov-29 09:32N 28°29' W 016°13'8 8.1
2016-Nov-29 08:33N 28°32' W 016°05'1716.9
2016-Nov-29 07:33N 28°42' W 015°50'1616.5
2016-Nov-29 06:33N 28°53' W 015°36'66215.6
2016-Nov-27 12:09N 35°58' W 005°34'914.5
2016-Nov-27 11:33N 36°00' W 005°24'23115.3
2016-Nov-26 20:26N 37°20' W 000°54'1416.0
2016-Nov-26 19:33N 37°30' W 000°41'1515.4
2016-Nov-26 18:33N 37°42' W 000°30'1716.8
2016-Nov-26 17:34N 37°59' W 000°26'133 9.4
2016-Nov-26 03:29N 39°50' E 001°07'1617.1
2016-Nov-26 02:34N 40°04' E 001°16'1717.1
2016-Nov-26 01:33N 40°19' E 001°28'1716.7
2016-Nov-26 00:33N 40°34' E 001°38'1716.9
2016-Nov-25 23:34N 40°48' E 001°51'1716.9
2016-Nov-25 22:32N 41°03' E 002°01'274 8.0
2016-Nov-24 12:21N 43°17' E 007°24'4815.4
2016-Nov-24 09:15N 43°41' E 008°21'912.7
2016-Nov-24 08:33N 43°47' E 008°30'1312.7
2016-Nov-24 07:33N 43°60' E 008°33'1414.0
2016-Nov-24 06:34N 44°12' E 008°42'1414.2
2016-Nov-24 05:33N 44°21' E 008°57'4 4.4
2016-Nov-24 04:32N 44°24' E 008°53'0 0.0
2016-Nov-24 03:32N 44°24' E 008°53'0 0.0
2016-Nov-24 02:32N 44°24' E 008°53'0 0.0
2016-Nov-24 01:32N 44°24' E 008°53'0 0.0
2016-Nov-24 00:32N 44°24' E 008°53'0 0.0
2016-Nov-23 23:32N 44°24' E 008°53'0 0.0
2016-Nov-23 22:32N 44°24' E 008°53'0 0.0
2016-Nov-23 21:32N 44°24' E 008°53'0 0.0
2016-Nov-23 20:32N 44°24' E 008°53'2 2.3
2016-Nov-23 19:33N 44°24' E 008°56'1211.9
2016-Nov-23 18:33N 44°12' E 008°53'1616.0
2016-Nov-23 17:33N 43°58' E 008°42'1515.3
2016-Nov-23 16:33N 43°46' E 008°29'23814.4
2016-Nov-23 00:05N 41°42' E 003°53'915.3
2016-Nov-22 23:30N 41°39' E 003°41'1415.1
2016-Nov-22 22:33N 41°34' E 003°23'3216.1
2016-Nov-22 20:33N 41°24' E 002°43'1716.7
2016-Nov-22 19:33N 41°19' E 002°22'  

Dump ship's entire track history